Spojené s riasovitými oblakmi a s možnosťou niekoľkých búrkových oblakov
Spojené s riasovitými oblakmi a s možnosťou niekoľkých búrkových oblakov
Spojené s riasovitými oblakmi a s možnosťou niekoľkých búrkových oblakov
Jasno s ojedinelými nízkymi oblakmi a riasovou slohou
Jasno s ojedinelými riasovitými oblakmi
Jasno s ojedinelými nízkymi oblakmi a riasovou slohou
Jasno s ojedinelými nízkymi oblakmi a riasovou slohou
(°C)
23°
23°
22°
22°
20°
20°
19°
19°
18°
18°
17°
17°
17°
17°
(°C)
22°
20°
19°
18°
18°
17°
17°
JV
VJV
V
VSV
VSV
S
S
(km/h)
7-22
11-20
9-19
7-13
5-10
4-9
4-11
(mm)
0
0
0
0
0
0
0
(%)
0
0
0
0
0
0
0

Výška Slnka nad obzorom

/ 6.1°
sun-icon
UV 7
06:49
21:13
Dorastajúci polmesiac (134°)
17:25
04:37

Správy METAR pre lokalitu Alcantarilla (LERI)

Čas Podmienky Teplota/
Rosný bod
Vietor Viditeľnosť Počasie Oblaky Tlak Zmeniť Nespracované
VFR 23°C / 12°C 130º variable 060º to 190º 4kt 9700m - Clouds and Visibility OK 1007 No Significant change LERI 191800Z 13004KT 060V190 CAVOK 23/12 Q1007 NOSIG
VFR 24°C / 12°C 130º variable 100º to 160º 10kt 9700m - Clouds and Visibility OK 1007 No Significant change LERI 191700Z 13010KT 100V160 CAVOK 24/12 Q1007 NOSIG
VFR 24°C / 11°C 150º variable 110º to 170º 11kt 9700m - Clouds and Visibility OK 1007 No Significant change LERI 191630Z 15011KT 110V170 CAVOK 24/11 Q1007 NOSIG
VFR 25°C / 11°C 100º variable 050º to 160º 7kt 9700m - Few Clouds 4800ft 1007 No Significant change LERI 191600Z 10007KT 050V160 9999 FEW048 25/11 Q1007 NOSIG
VFR 24°C / 11°C 90º variable 060º to 140º 7kt 9700m - Few Clouds 4800ft 1007 No Significant change LERI 191530Z 09007KT 060V140 9999 FEW048 24/11 Q1007 NOSIG
VFR 24°C / 11°C 120º variable 070º to 180º 8kt 9700m - Few Clouds 4000ft 1007 No Significant change LERI 191500Z 12008KT 070V180 9999 FEW040 24/11 Q1007 NOSIG
VFR 24°C / 10°C 120º variable 090º to 160º 8kt 9700m - Few Clouds 4800ft 1008 No Significant change LERI 191430Z 12008KT 090V160 9999 FEW048 24/10 Q1008 NOSIG
VFR 25°C / 10°C 90º variable 040º to 140º 9kt 9700m - Few Clouds 4800ft 1008 No Significant change LERI 191400Z 09009KT 040V140 9999 FEW048 25/10 Q1008 NOSIG
VFR 24°C / 11°C 100º variable 050º to 150º 9kt 9700m - Few Clouds 4800ft 1008 No Significant change LERI 191330Z 10009KT 050V150 9999 FEW048 24/11 Q1008 NOSIG
VFR 25°C / 11°C 100º variable 050º to 170º 9kt 9700m - Scattered Clouds 4800ft 1008 No Significant change LERI 191300Z 10009KT 050V170 9999 SCT048 25/11 Q1008 NOSIG
VFR 25°C / 11°C 60º variable 030º to 090º 10kt 9700m - Scattered Clouds 4800ft 1009 No Significant change LERI 191230Z 06010KT 030V090 9999 SCT048 25/11 Q1009 NOSIG
VFR 25°C / 12°C 120º variable 360º to 170º 7kt 9700m - Scattered Clouds 4800ft 1009 No Significant change LERI 191200Z 12007KT 360V170 9999 SCT048 25/12 Q1009 NOSIG
VFR 25°C / 10°C 40º variable 360º to 090º 5kt 9700m - Few Clouds 4800ft 1009 No Significant change LERI 191130Z 04005KT 360V090 9999 FEW048 25/10 Q1009 NOSIG
VFR 24°C / 11°C 5kt 9700m - Few Clouds 4400ft 1009 No Significant change LERI 191100Z VRB05KT 9999 FEW044 24/11 Q1009 NOSIG
VFR 23°C / 11°C 5kt 9700m - Few Clouds 4400ft 1010 No Significant change LERI 191030Z VRB05KT 9999 FEW044 23/11 Q1010 NOSIG
VFR 23°C / 10°C 100º variable 050º to 160º 5kt 9700m - Few Clouds 3000ft 1010 No Significant change LERI 191000Z 10005KT 050V160 9999 FEW030 23/10 Q1010 NOSIG
VFR 23°C / 11°C 90º variable 020º to 140º 7kt 9700m - Few Clouds 3000ft 1010 No Significant change LERI 190930Z 09007KT 020V140 9999 FEW030 23/11 Q1010 NOSIG
VFR 21°C / 12°C 70º variable 020º to 110º 5kt 9700m - Scattered Clouds 2400ft 1010 No Significant change LERI 190900Z 07005KT 020V110 9999 SCT024 21/12 Q1010 NOSIG
VFR 20°C / 13°C 330º variable 280º to 010º 4kt 9700m - Scattered Clouds 2400ft 1010 No Significant change LERI 190830Z 33004KT 280V010 9999 SCT024 20/13 Q1010 NOSIG
VFR 19°C / 13°C 4kt 9700m - Scattered Clouds 2000ft 1011 No Significant change LERI 190800Z VRB04KT 9999 SCT020 19/13 Q1011 NOSIG
VFR 19°C / 13°C 40º variable 340º to 100º 4kt 9700m - Few Clouds 2000ft 1011 No Significant change LERI 190730Z 04004KT 340V100 9999 FEW020 19/13 Q1011 NOSIG
VFR 19°C / 13°C 340º variable 280º to 020º 3kt 9700m - Few Clouds 1000ft
Scattered Clouds 2400ft
1011 No Significant change LERI 190700Z 34003KT 280V020 9999 FEW010 SCT024 19/13 Q1011 NOSIG
VFR 17°C / 11°C variable 0kt 9700m - Few Clouds 1000ft
Scattered Clouds 1900ft
1011 No Significant change LERI 190630Z 00000KT 9999 FEW010 SCT019 17/11 Q1011 NOSIG
VFR 13°C / 9°C 190º variable 150º to 230º 3kt 9700m - Few Clouds 1000ft
Scattered Clouds 1900ft
1011 No Significant change LERI 190600Z 19003KT 150V230 9999 FEW010 SCT019 13/09 Q1011 NOSIG

VFR

23°C / 12°C

[Viac]
Vietor 130º variable 060º to 190º 4kt
Viditeľnosť 9700m
Počasie -
Oblaky Clouds and Visibility OK
Tlak 1007
Zmeniť No Significant change
Nespracované LERI 191800Z 13004KT 060V190 CAVOK 23/12 Q1007 NOSIG

VFR

24°C / 12°C

[Viac]
Vietor 130º variable 100º to 160º 10kt
Viditeľnosť 9700m
Počasie -
Oblaky Clouds and Visibility OK
Tlak 1007
Zmeniť No Significant change
Nespracované LERI 191700Z 13010KT 100V160 CAVOK 24/12 Q1007 NOSIG

VFR

24°C / 11°C

[Viac]
Vietor 150º variable 110º to 170º 11kt
Viditeľnosť 9700m
Počasie -
Oblaky Clouds and Visibility OK
Tlak 1007
Zmeniť No Significant change
Nespracované LERI 191630Z 15011KT 110V170 CAVOK 24/11 Q1007 NOSIG

VFR

25°C / 11°C

[Viac]
Vietor 100º variable 050º to 160º 7kt
Viditeľnosť 9700m
Počasie -
Oblaky Few Clouds 4800ft
Tlak 1007
Zmeniť No Significant change
Nespracované LERI 191600Z 10007KT 050V160 9999 FEW048 25/11 Q1007 NOSIG

VFR

24°C / 11°C

[Viac]
Vietor 90º variable 060º to 140º 7kt
Viditeľnosť 9700m
Počasie -
Oblaky Few Clouds 4800ft
Tlak 1007
Zmeniť No Significant change
Nespracované LERI 191530Z 09007KT 060V140 9999 FEW048 24/11 Q1007 NOSIG

VFR

24°C / 11°C

[Viac]
Vietor 120º variable 070º to 180º 8kt
Viditeľnosť 9700m
Počasie -
Oblaky Few Clouds 4000ft
Tlak 1007
Zmeniť No Significant change
Nespracované LERI 191500Z 12008KT 070V180 9999 FEW040 24/11 Q1007 NOSIG

VFR

24°C / 10°C

[Viac]
Vietor 120º variable 090º to 160º 8kt
Viditeľnosť 9700m
Počasie -
Oblaky Few Clouds 4800ft
Tlak 1008
Zmeniť No Significant change
Nespracované LERI 191430Z 12008KT 090V160 9999 FEW048 24/10 Q1008 NOSIG

VFR

25°C / 10°C

[Viac]
Vietor 90º variable 040º to 140º 9kt
Viditeľnosť 9700m
Počasie -
Oblaky Few Clouds 4800ft
Tlak 1008
Zmeniť No Significant change
Nespracované LERI 191400Z 09009KT 040V140 9999 FEW048 25/10 Q1008 NOSIG

VFR

24°C / 11°C

[Viac]
Vietor 100º variable 050º to 150º 9kt
Viditeľnosť 9700m
Počasie -
Oblaky Few Clouds 4800ft
Tlak 1008
Zmeniť No Significant change
Nespracované LERI 191330Z 10009KT 050V150 9999 FEW048 24/11 Q1008 NOSIG

VFR

25°C / 11°C

[Viac]
Vietor 100º variable 050º to 170º 9kt
Viditeľnosť 9700m
Počasie -
Oblaky Scattered Clouds 4800ft
Tlak 1008
Zmeniť No Significant change
Nespracované LERI 191300Z 10009KT 050V170 9999 SCT048 25/11 Q1008 NOSIG

VFR

25°C / 11°C

[Viac]
Vietor 60º variable 030º to 090º 10kt
Viditeľnosť 9700m
Počasie -
Oblaky Scattered Clouds 4800ft
Tlak 1009
Zmeniť No Significant change
Nespracované LERI 191230Z 06010KT 030V090 9999 SCT048 25/11 Q1009 NOSIG

VFR

25°C / 12°C

[Viac]
Vietor 120º variable 360º to 170º 7kt
Viditeľnosť 9700m
Počasie -
Oblaky Scattered Clouds 4800ft
Tlak 1009
Zmeniť No Significant change
Nespracované LERI 191200Z 12007KT 360V170 9999 SCT048 25/12 Q1009 NOSIG

VFR

25°C / 10°C

[Viac]
Vietor 40º variable 360º to 090º 5kt
Viditeľnosť 9700m
Počasie -
Oblaky Few Clouds 4800ft
Tlak 1009
Zmeniť No Significant change
Nespracované LERI 191130Z 04005KT 360V090 9999 FEW048 25/10 Q1009 NOSIG

VFR

24°C / 11°C

[Viac]
Vietor 5kt
Viditeľnosť 9700m
Počasie -
Oblaky Few Clouds 4400ft
Tlak 1009
Zmeniť No Significant change
Nespracované LERI 191100Z VRB05KT 9999 FEW044 24/11 Q1009 NOSIG

VFR

23°C / 11°C

[Viac]
Vietor 5kt
Viditeľnosť 9700m
Počasie -
Oblaky Few Clouds 4400ft
Tlak 1010
Zmeniť No Significant change
Nespracované LERI 191030Z VRB05KT 9999 FEW044 23/11 Q1010 NOSIG

VFR

23°C / 10°C

[Viac]
Vietor 100º variable 050º to 160º 5kt
Viditeľnosť 9700m
Počasie -
Oblaky Few Clouds 3000ft
Tlak 1010
Zmeniť No Significant change
Nespracované LERI 191000Z 10005KT 050V160 9999 FEW030 23/10 Q1010 NOSIG

VFR

23°C / 11°C

[Viac]
Vietor 90º variable 020º to 140º 7kt
Viditeľnosť 9700m
Počasie -
Oblaky Few Clouds 3000ft
Tlak 1010
Zmeniť No Significant change
Nespracované LERI 190930Z 09007KT 020V140 9999 FEW030 23/11 Q1010 NOSIG

VFR

21°C / 12°C

[Viac]
Vietor 70º variable 020º to 110º 5kt
Viditeľnosť 9700m
Počasie -
Oblaky Scattered Clouds 2400ft
Tlak 1010
Zmeniť No Significant change
Nespracované LERI 190900Z 07005KT 020V110 9999 SCT024 21/12 Q1010 NOSIG

VFR

20°C / 13°C

[Viac]
Vietor 330º variable 280º to 010º 4kt
Viditeľnosť 9700m
Počasie -
Oblaky Scattered Clouds 2400ft
Tlak 1010
Zmeniť No Significant change
Nespracované LERI 190830Z 33004KT 280V010 9999 SCT024 20/13 Q1010 NOSIG

VFR

19°C / 13°C

[Viac]
Vietor 4kt
Viditeľnosť 9700m
Počasie -
Oblaky Scattered Clouds 2000ft
Tlak 1011
Zmeniť No Significant change
Nespracované LERI 190800Z VRB04KT 9999 SCT020 19/13 Q1011 NOSIG

VFR

19°C / 13°C

[Viac]
Vietor 40º variable 340º to 100º 4kt
Viditeľnosť 9700m
Počasie -
Oblaky Few Clouds 2000ft
Tlak 1011
Zmeniť No Significant change
Nespracované LERI 190730Z 04004KT 340V100 9999 FEW020 19/13 Q1011 NOSIG

VFR

19°C / 13°C

[Viac]
Vietor 340º variable 280º to 020º 3kt
Viditeľnosť 9700m
Počasie -
Oblaky Few Clouds 1000ft
Scattered Clouds 2400ft
Tlak 1011
Zmeniť No Significant change
Nespracované LERI 190700Z 34003KT 280V020 9999 FEW010 SCT024 19/13 Q1011 NOSIG

VFR

17°C / 11°C

[Viac]
Vietor variable 0kt
Viditeľnosť 9700m
Počasie -
Oblaky Few Clouds 1000ft
Scattered Clouds 1900ft
Tlak 1011
Zmeniť No Significant change
Nespracované LERI 190630Z 00000KT 9999 FEW010 SCT019 17/11 Q1011 NOSIG

VFR

13°C / 9°C

[Viac]
Vietor 190º variable 150º to 230º 3kt
Viditeľnosť 9700m
Počasie -
Oblaky Few Clouds 1000ft
Scattered Clouds 1900ft
Tlak 1011
Zmeniť No Significant change
Nespracované LERI 190600Z 19003KT 150V230 9999 FEW010 SCT019 13/09 Q1011 NOSIG

Správy TAF pre lokalitu Alcantarilla (LERI)

From till


Maximum Temperature 27ºC on . Minimum Temperature 16ºC on .
From till Wind 2kt. Visibility 9700m. Nil Significant Cloud.
Becoming from till

Nespracované: TAF LERI 191700Z 1918/2018 VRB02KT CAVOK TX27/2015Z TN16/2006Z BECMG 2011/2013 20012KT

Radar a krátkodobá predpoveď zrážok pre Alcantarilla

Mrholenie
Slabý
Mierne
Ťažké
Veľmi ťažké
Krúpy

Značka polohy je umiestnená na Alcantarilla. Táto animácia zobrazuje zrážkový radar pre vybraný časový rozsah, ako aj 2h predpoveď. Oranžové krížiky označujú blesky. Údaje poskytol nowcast.de (k dispozícii v USA, Európe a Austrálii). Mrholenie alebo slabé sneženie môže byť pre radar neviditeľné. Intenzita zrážok je farebne označená od tyrkysovej po červenú.

Aktuálne satelitné snímky a snímky zrážok pre lokalitu Alcantarilla, Španielsko

Značka polohy je umiestnená naAlcantarilla. [Viac]

Satelitné snímky zhotovované v reálnom čase využívajú viditeľné svetlo počas dňa a infračervené žiarenie počas noci. Vzhľadom na to, že infračervené žiarenie zisťuje teplotné rozdiely, snímka v noci nie je tmavá. Nízke oblaky a hmlu je, žiaľ, ťažké odlíšiť od prízemných teplôt, preto môžu byť počas noci takmer neviditeľné. Meteosat satelitné snímky pre Európu sú aktualizované v reálnom čase každých 5 minút. Snímky z GOES-16/GOES-17 (Severná a Južná Amerika) a Himawari (Ázia) sú aktualizované každých 10 minút.

Zrážky sa odhadujú z radarov a satelitov. Odhady zrážok zo satelitov sú v noci menej presné ako počas dňa.

© 2024 meteoblue, NOAA Satellites GOES-16 and EUMETSAT. Údaje o bleskoch poskytuje nowcast.

Späť nahor
×
Dobrý deň,
zdá sa, že používate blokovač reklám.

Inzercia je nevyhnutná na udržiavanie našej bezplatnej webovej stránky s jedinečnými detailmi a presnosťou.

Prosím, zapíšte si www.meteoblue.com na bielu listinu blokovača reklám alebo zvážte kúpu niektorého z našich produktov:

Už máte predplatné?
Potom sa prosím prihláste.